createdAt,value
2023-05-05T00:00:30.228Z,5.87
2023-05-05T00:03:35.551Z,5.67
2023-05-05T00:06:38.864Z,8.80
2023-05-05T00:09:42.020Z,5.83
2023-05-05T00:12:45.241Z,5.10
2023-05-05T00:15:51.927Z,5.63
2023-05-05T00:18:54.988Z,5.87
2023-05-05T00:21:58.031Z,5.37
2023-05-05T00:25:01.192Z,6.63
2023-05-05T00:28:04.348Z,6.07
2023-05-05T00:31:08.981Z,5.13
2023-05-05T00:34:12.114Z,5.13
2023-05-05T00:37:15.257Z,4.63
2023-05-05T00:40:18.752Z,5.63
2023-05-05T00:43:21.861Z,5.63
2023-05-05T00:46:28.498Z,5.03
2023-05-05T00:49:32.037Z,5.80
2023-05-05T00:52:36.022Z,4.80
2023-05-05T00:55:39.197Z,5.70
2023-05-05T00:58:43.695Z,5.10
2023-05-05T01:01:48.489Z,5.37
2023-05-05T01:04:51.774Z,5.33
2023-05-05T01:08:07.267Z,4.70
2023-05-05T01:11:19.054Z,6.50
2023-05-05T01:14:29.498Z,5.10
2023-05-05T01:17:39.968Z,4.43
2023-05-05T01:20:49.451Z,5.23
2023-05-05T01:24:33.723Z,5.10
2023-05-05T01:27:51.261Z,4.47
2023-05-05T01:31:22.869Z,5.70
2023-05-05T01:34:33.499Z,4.77
2023-05-05T01:37:42.366Z,4.60
2023-05-05T01:40:50.252Z,4.83
2023-05-05T01:43:55.544Z,5.40
2023-05-05T01:47:00.843Z,4.50
2023-05-05T01:50:08.244Z,5.87
2023-05-05T01:53:12.831Z,4.83
2023-05-05T01:56:17.199Z,4.83
2023-05-05T01:59:22.149Z,4.73
2023-05-05T02:02:29.386Z,5.23
2023-05-05T02:05:34.327Z,4.80
2023-05-05T02:08:39.907Z,4.43
2023-05-05T02:11:43.359Z,4.43
2023-05-05T02:14:47.849Z,4.30
2023-05-05T02:17:53.246Z,4.90
2023-05-05T02:20:57.725Z,4.63
2023-05-05T02:24:01.226Z,5.40
2023-05-05T02:27:07.533Z,5.10
2023-05-05T02:30:13.012Z,5.30
2023-05-05T02:33:20.481Z,5.50
2023-05-05T02:36:29.340Z,4.30
2023-05-05T02:39:36.661Z,4.43
2023-05-05T02:42:42.662Z,4.90
2023-05-05T02:45:45.732Z,4.43
2023-05-05T02:48:49.049Z,4.90
2023-05-05T02:51:53.646Z,4.57
2023-05-05T02:54:56.786Z,4.20
2023-05-05T02:58:06.734Z,4.90
2023-05-05T03:01:19.969Z,4.30
2023-05-05T03:04:27.751Z,4.77
2023-05-05T03:07:39.543Z,4.77
2023-05-05T03:10:48.593Z,4.97
2023-05-05T03:13:57.254Z,4.30
2023-05-05T03:17:02.569Z,4.93
2023-05-05T03:20:08.290Z,4.67
2023-05-05T03:23:14.652Z,4.70
2023-05-05T03:26:18.901Z,4.87
2023-05-05T03:29:22.041Z,4.73
2023-05-05T03:32:25.584Z,38.93
2023-05-05T03:35:28.789Z,19.27
2023-05-05T03:38:33.265Z,14.23
2023-05-05T03:41:36.338Z,19.63
2023-05-05T03:44:39.309Z,19.53
2023-05-05T03:47:42.422Z,13.20
2023-05-05T03:50:46.296Z,14.97
2023-05-05T03:53:50.728Z,27.00
2023-05-05T03:56:53.724Z,153.83
2023-05-05T03:59:56.720Z,40.77
2023-05-05T04:02:59.950Z,33.07
2023-05-05T04:06:03.287Z,29.37
2023-05-05T04:09:07.727Z,28.20
2023-05-05T04:12:10.863Z,24.13
2023-05-05T04:15:14.037Z,19.50
2023-05-05T04:18:17.098Z,63.37
2023-05-05T04:21:20.162Z,19.63
2023-05-05T04:24:26.007Z,11.17
2023-05-05T04:27:30.419Z,17.33
2023-05-05T04:30:33.555Z,16.17
2023-05-05T04:33:36.883Z,5.67
2023-05-05T04:36:39.951Z,9.03
2023-05-05T04:39:44.471Z,11.23
2023-05-05T04:42:47.439Z,7.40
2023-05-05T04:45:54.013Z,7.40
2023-05-05T04:48:57.085Z,5.70
2023-05-05T04:52:00.612Z,6.33
2023-05-05T04:55:05.540Z,5.87
2023-05-05T04:58:08.692Z,6.00
2023-05-05T05:01:11.812Z,5.93
2023-05-05T05:04:18.579Z,5.60
2023-05-05T05:07:21.771Z,5.87
2023-05-05T05:10:26.173Z,5.93
2023-05-05T05:13:29.122Z,5.93
2023-05-05T05:16:32.163Z,5.57
2023-05-05T05:19:35.479Z,8.03
2023-05-05T05:22:39.052Z,10.97
2023-05-05T05:25:43.811Z,9.90
2023-05-05T05:28:46.901Z,5.67
2023-05-05T05:31:50.304Z,6.60
2023-05-05T05:34:53.429Z,5.23
2023-05-05T05:37:56.430Z,5.17
2023-05-05T05:41:01.212Z,5.00
2023-05-05T05:44:04.207Z,6.53
2023-05-05T05:47:07.353Z,5.27
2023-05-05T05:50:11.052Z,8.30
2023-05-05T05:53:14.270Z,6.73
2023-05-05T05:56:18.725Z,5.10
2023-05-05T05:59:21.877Z,5.33
2023-05-05T06:02:26.548Z,4.87
2023-05-05T06:05:30.095Z,4.77
2023-05-05T06:08:33.303Z,4.20
2023-05-05T06:11:37.839Z,4.07
2023-05-05T06:14:41.273Z,6.33
2023-05-05T06:17:44.437Z,4.00
2023-05-05T06:20:50.787Z,4.97
2023-05-05T06:23:53.977Z,3.57
2023-05-05T06:26:59.366Z,3.67
2023-05-05T06:30:02.359Z,4.00
2023-05-05T06:33:05.625Z,6.60
2023-05-05T06:36:11.253Z,3.43
2023-05-05T06:39:16.054Z,12.33
2023-05-05T06:42:20.824Z,6.40
2023-05-05T06:45:23.909Z,5.23
2023-05-05T06:48:27.052Z,3.50
2023-05-05T06:51:30.239Z,3.23
2023-05-05T06:54:33.429Z,7.93
2023-05-05T06:57:37.919Z,4.50
2023-05-05T07:00:41.535Z,6.13
2023-05-05T07:03:44.810Z,3.70
2023-05-05T07:06:48.000Z,4.77
2023-05-05T07:09:51.174Z,6.63
2023-05-05T07:12:56.061Z,3.60
2023-05-05T07:15:59.121Z,3.00
2023-05-05T07:19:05.794Z,3.70
2023-05-05T07:22:08.950Z,3.37
2023-05-05T07:25:12.065Z,2.87
2023-05-05T07:28:16.795Z,2.90
2023-05-05T07:31:22.073Z,2.47
2023-05-05T07:34:25.563Z,3.00
2023-05-05T07:37:28.690Z,2.50
2023-05-05T07:40:32.130Z,3.03
2023-05-05T07:43:39.268Z,2.50
2023-05-05T07:46:42.898Z,2.43
2023-05-05T07:49:45.957Z,2.97
2023-05-05T07:52:54.021Z,2.50
2023-05-05T07:56:05.453Z,3.07
2023-05-05T07:59:09.925Z,2.93
2023-05-05T08:02:13.945Z,2.43
2023-05-05T08:05:17.519Z,2.30
2023-05-05T08:08:24.943Z,3.70
2023-05-05T08:11:29.651Z,2.37
2023-05-05T08:14:34.453Z,2.20
2023-05-05T08:17:48.812Z,3.93
2023-05-05T08:20:52.946Z,2.40
2023-05-05T08:23:56.056Z,2.70
2023-05-05T08:26:59.293Z,3.03
2023-05-05T08:30:04.523Z,3.33
2023-05-05T08:33:07.632Z,4.77
2023-05-05T08:36:11.655Z,3.70
2023-05-05T08:39:14.773Z,5.33
2023-05-05T08:42:32.758Z,4.20
2023-05-05T08:45:42.042Z,4.77
2023-05-05T08:48:46.450Z,4.90
2023-05-05T08:51:52.176Z,4.97
2023-05-05T08:54:58.702Z,4.77
2023-05-05T08:58:03.462Z,4.20
2023-05-05T09:01:09.247Z,4.60
2023-05-05T09:04:12.540Z,5.20
2023-05-05T09:07:15.740Z,4.70
2023-05-05T09:10:19.587Z,4.87
2023-05-05T09:13:22.781Z,4.93
2023-05-05T09:16:27.317Z,5.53
2023-05-05T09:19:30.494Z,5.87
2023-05-05T09:22:37.003Z,6.27
2023-05-05T09:25:40.535Z,6.67
2023-05-05T09:28:53.589Z,7.50
2023-05-05T09:32:09.058Z,7.20
2023-05-05T09:35:12.447Z,7.30
2023-05-05T09:38:15.493Z,7.57
2023-05-05T09:41:37.926Z,6.90
2023-05-05T09:44:41.369Z,7.37
2023-05-05T09:47:46.875Z,6.63
2023-05-05T09:50:50.188Z,7.13
2023-05-05T09:53:53.534Z,7.10
2023-05-05T09:56:57.456Z,6.70
2023-05-05T10:00:01.801Z,7.17
2023-05-05T10:03:06.798Z,6.30
2023-05-05T10:06:10.015Z,6.53
2023-05-05T10:09:13.058Z,7.20
2023-05-05T10:12:16.357Z,7.73
2023-05-05T10:15:20.094Z,6.37
2023-05-05T10:18:25.860Z,6.77
2023-05-05T10:21:34.653Z,6.40
2023-05-05T10:24:40.898Z,7.30
2023-05-05T10:27:44.822Z,7.43
2023-05-05T10:30:53.449Z,7.13
2023-05-05T10:34:04.626Z,7.40
2023-05-05T10:37:08.515Z,6.80
2023-05-05T10:40:12.168Z,6.80
2023-05-05T10:43:15.605Z,6.83
2023-05-05T10:46:19.353Z,7.53
2023-05-05T10:49:34.582Z,6.53
2023-05-05T10:52:43.192Z,7.23
2023-05-05T10:55:55.330Z,7.13
2023-05-05T10:59:00.806Z,8.10
2023-05-05T11:02:19.990Z,7.23
2023-05-05T11:05:24.736Z,6.50
2023-05-05T11:08:28.228Z,6.63
2023-05-05T11:12:04.564Z,6.93
2023-05-05T11:15:38.036Z,6.70
2023-05-05T11:18:44.492Z,6.20
2023-05-05T11:22:03.111Z,5.30
2023-05-05T11:25:41.147Z,5.03
2023-05-05T11:29:04.767Z,6.43
2023-05-05T11:32:15.745Z,5.83
2023-05-05T11:35:19.088Z,6.63
2023-05-05T11:38:27.488Z,5.97
2023-05-05T11:42:13.767Z,5.27
2023-05-05T11:45:24.220Z,5.07
2023-05-05T11:48:27.698Z,4.60
2023-05-05T11:51:31.045Z,5.17
2023-05-05T11:54:36.378Z,4.37
2023-05-05T11:57:39.598Z,4.20
2023-05-05T12:00:42.779Z,5.20
2023-05-05T12:03:46.374Z,4.60
2023-05-05T12:06:50.215Z,4.20
2023-05-05T12:09:55.135Z,4.00
2023-05-05T12:12:58.280Z,3.93
2023-05-05T12:16:10.122Z,4.77
2023-05-05T12:19:14.498Z,4.20
2023-05-05T12:22:22.403Z,3.97
2023-05-05T12:25:27.049Z,8.33
2023-05-05T12:28:44.754Z,8.63
2023-05-05T12:31:47.992Z,6.47
2023-05-05T12:34:54.484Z,6.73
2023-05-05T12:37:58.448Z,6.90
2023-05-05T12:45:28.379Z,7.80
2023-05-05T12:48:31.964Z,7.47
2023-05-05T12:51:36.605Z,7.57
2023-05-05T12:54:54.839Z,6.60
2023-05-05T12:58:02.234Z,6.20
2023-05-05T13:01:12.966Z,6.93
2023-05-05T13:04:16.606Z,8.00
2023-05-05T13:07:21.340Z,7.13
2023-05-05T13:10:25.382Z,7.20
2023-05-05T13:13:28.596Z,7.33
2023-05-05T13:16:34.004Z,6.50
2023-05-05T13:19:42.050Z,6.20
2023-05-05T13:22:45.906Z,6.60
2023-05-05T13:25:49.041Z,6.30
2023-05-05T13:28:52.223Z,8.10
2023-05-05T13:31:56.683Z,6.10
2023-05-05T13:34:59.803Z,7.07
2023-05-05T13:38:03.023Z,7.53
2023-05-05T13:41:06.330Z,7.00
2023-05-05T13:44:09.430Z,6.60
2023-05-05T13:47:14.130Z,7.07
2023-05-05T13:50:18.410Z,130.67
2023-05-05T13:53:21.802Z,289.63
2023-05-05T13:56:26.371Z,552.60
2023-05-05T13:59:30.088Z,379.90
2023-05-05T14:02:34.634Z,325.03
2023-05-05T14:05:42.614Z,315.33
2023-05-05T14:08:46.291Z,330.27
2023-05-05T14:11:49.522Z,168.23
2023-05-05T14:14:52.818Z,241.53
2023-05-05T14:17:58.119Z,182.23
2023-05-05T14:21:01.390Z,119.70
2023-05-05T14:24:04.701Z,141.37
2023-05-05T14:27:08.125Z,144.77
2023-05-05T14:30:12.119Z,119.53
2023-05-05T14:33:17.073Z,128.23
2023-05-05T14:36:20.957Z,82.07
2023-05-05T14:39:24.033Z,26.50
2023-05-05T14:42:27.329Z,24.93
2023-05-05T14:45:30.767Z,14.77
2023-05-05T14:48:36.088Z,16.07
2023-05-05T14:51:39.151Z,15.03
2023-05-05T14:54:42.308Z,11.87
2023-05-05T14:57:45.417Z,18.00
2023-05-05T15:00:48.483Z,19.23
2023-05-05T15:03:54.020Z,26.70
2023-05-05T15:06:57.184Z,28.40
2023-05-05T15:10:00.412Z,56.83
2023-05-05T15:13:03.535Z,75.83
2023-05-05T15:16:07.481Z,58.27
2023-05-05T15:19:11.993Z,65.73
2023-05-05T15:22:15.156Z,94.50
2023-05-05T15:25:19.365Z,66.50
2023-05-05T15:28:22.439Z,55.13
2023-05-05T15:31:25.559Z,48.83
2023-05-05T15:34:30.011Z,264.80
2023-05-05T15:37:33.226Z,236.63
2023-05-05T15:40:40.583Z,152.90
2023-05-05T15:43:43.674Z,164.60
2023-05-05T15:46:48.337Z,155.57
2023-05-05T15:49:55.043Z,155.40
2023-05-05T15:52:59.124Z,177.33
2023-05-05T15:56:02.890Z,166.70
2023-05-05T15:59:05.965Z,94.50
2023-05-05T16:02:09.195Z,83.67
2023-05-05T16:05:14.547Z,48.13
2023-05-05T16:08:17.546Z,55.30
2023-05-05T16:11:22.462Z,40.50
2023-05-05T16:14:25.726Z,54.03
2023-05-05T16:17:29.124Z,40.13
2023-05-05T16:20:34.007Z,21.77
2023-05-05T16:23:37.076Z,26.23
2023-05-05T16:26:40.118Z,17.60
2023-05-05T16:29:43.149Z,11.43
2023-05-05T16:32:47.534Z,14.67
2023-05-05T16:35:51.989Z,15.93
2023-05-05T16:38:55.528Z,11.57
2023-05-05T16:41:58.728Z,11.87
2023-05-05T16:45:01.820Z,9.77
2023-05-05T16:48:08.220Z,11.73
2023-05-05T16:51:13.624Z,13.70
2023-05-05T16:54:16.774Z,6.10
2023-05-05T16:57:19.862Z,10.47
2023-05-05T17:00:22.918Z,15.90
2023-05-05T17:03:26.499Z,22.83
2023-05-05T17:06:33.245Z,20.90
2023-05-05T17:09:36.285Z,22.17
2023-05-05T17:12:39.790Z,22.97
2023-05-05T17:15:44.306Z,35.67
2023-05-05T17:18:47.829Z,18.97
2023-05-05T17:21:52.422Z,16.73
2023-05-05T17:24:55.486Z,15.63
2023-05-05T17:27:58.700Z,9.07
2023-05-05T17:31:02.141Z,15.53
2023-05-05T17:34:05.165Z,8.40
2023-05-05T17:37:10.492Z,6.80
2023-05-05T17:40:13.845Z,8.67
2023-05-05T17:43:17.080Z,11.93
2023-05-05T17:46:20.310Z,14.83
2023-05-05T17:49:25.356Z,18.30
2023-05-05T17:52:29.949Z,6.53
2023-05-05T17:55:33.026Z,10.70
2023-05-05T17:58:36.066Z,9.20
2023-05-05T18:01:39.111Z,7.57
2023-05-05T18:04:42.543Z,19.97
2023-05-05T18:07:47.053Z,10.13
2023-05-05T18:10:50.092Z,17.47
2023-05-05T18:13:53.227Z,14.40
2023-05-05T18:16:56.391Z,14.50
2023-05-05T18:19:59.471Z,10.70
2023-05-05T18:23:03.929Z,10.37
2023-05-05T18:26:07.313Z,12.17
2023-05-05T18:29:10.694Z,10.83
2023-05-05T18:32:13.867Z,8.37
2023-05-05T18:35:17.315Z,11.03
2023-05-05T18:38:21.799Z,10.23
2023-05-05T18:41:24.847Z,7.97
2023-05-05T18:44:28.019Z,9.80
2023-05-05T18:47:31.209Z,13.87
2023-05-05T18:50:34.362Z,10.67
2023-05-05T18:53:38.895Z,12.70
2023-05-05T18:56:42.957Z,13.37
2023-05-05T18:59:46.094Z,23.03
2023-05-05T19:02:49.199Z,21.80
2023-05-05T19:05:52.379Z,18.90
2023-05-05T19:08:57.361Z,30.13
2023-05-05T19:12:00.496Z,20.83
2023-05-05T19:15:03.612Z,30.50
2023-05-05T19:18:06.913Z,20.73
2023-05-05T19:21:10.019Z,20.97
2023-05-05T19:24:14.600Z,24.17
2023-05-05T19:27:17.898Z,27.63
2023-05-05T19:30:21.089Z,28.30
2023-05-05T19:33:24.574Z,23.30
2023-05-05T19:36:27.825Z,17.33
2023-05-05T19:39:32.621Z,17.47
2023-05-05T19:42:35.844Z,19.80
2023-05-05T19:45:39.071Z,25.87
2023-05-05T19:48:42.227Z,20.43
2023-05-05T19:51:47.635Z,24.60
2023-05-05T19:54:52.173Z,31.60
2023-05-05T19:57:55.255Z,29.70
2023-05-05T20:00:58.382Z,33.53
2023-05-05T20:04:01.517Z,35.10
2023-05-05T20:07:05.050Z,36.40
2023-05-05T20:10:13.312Z,31.90
2023-05-05T20:13:16.834Z,33.33
2023-05-05T20:16:20.164Z,33.87
2023-05-05T20:19:23.329Z,32.20
2023-05-05T20:22:27.142Z,39.80
2023-05-05T20:25:32.020Z,27.77
2023-05-05T20:28:35.315Z,25.30
2023-05-05T20:31:38.582Z,27.10
2023-05-05T20:34:41.607Z,32.00
2023-05-05T20:37:45.839Z,27.57
2023-05-05T20:40:50.698Z,33.13
2023-05-05T20:43:53.818Z,26.73
2023-05-05T20:46:56.947Z,28.00
2023-05-05T20:50:00.082Z,23.43
2023-05-05T20:53:03.235Z,25.97
2023-05-05T20:56:09.090Z,25.27
2023-05-05T20:59:12.419Z,21.53
2023-05-05T21:02:15.459Z,25.00
2023-05-05T21:05:18.645Z,19.07
2023-05-05T21:08:21.824Z,21.70
2023-05-05T21:11:26.333Z,19.57
2023-05-05T21:14:29.451Z,19.17
2023-05-05T21:17:32.523Z,20.07
2023-05-05T21:20:36.374Z,23.50
2023-05-05T21:23:39.487Z,36.90
2023-05-05T21:26:45.400Z,36.13
2023-05-05T21:29:52.178Z,37.13
2023-05-05T21:32:55.231Z,33.63
2023-05-05T21:35:58.305Z,26.70
2023-05-05T21:39:02.129Z,36.70
2023-05-05T21:42:06.721Z,29.73
2023-05-05T21:45:11.660Z,30.37
2023-05-05T21:48:14.908Z,22.60
2023-05-05T21:51:18.046Z,26.20
2023-05-05T21:54:21.066Z,24.03
2023-05-05T21:57:25.517Z,24.40
2023-05-05T22:00:28.606Z,23.63
2023-05-05T22:03:31.798Z,20.37
2023-05-05T22:06:35.584Z,33.20
2023-05-05T22:09:38.625Z,18.47
2023-05-05T22:12:43.162Z,31.17
2023-05-05T22:15:47.427Z,24.10
2023-05-05T22:18:51.526Z,24.07
2023-05-05T22:21:55.080Z,18.00
2023-05-05T22:24:58.110Z,19.67
2023-05-05T22:28:02.646Z,16.87
2023-05-05T22:31:05.780Z,12.10
2023-05-05T22:34:09.189Z,15.00
2023-05-05T22:37:12.320Z,12.03
2023-05-05T22:40:15.397Z,14.30
2023-05-05T22:43:20.164Z,10.43
2023-05-05T22:46:23.323Z,14.37
2023-05-05T22:49:26.565Z,13.37
2023-05-05T22:52:29.540Z,12.70
2023-05-05T22:55:32.635Z,11.10
2023-05-05T22:58:37.105Z,11.37
2023-05-05T23:01:40.245Z,13.57
2023-05-05T23:04:44.892Z,10.40
2023-05-05T23:07:48.131Z,13.03
2023-05-05T23:10:51.254Z,9.40
2023-05-05T23:13:55.764Z,11.33
2023-05-05T23:16:59.325Z,10.53
2023-05-05T23:20:02.753Z,13.70
2023-05-05T23:23:05.909Z,10.20
2023-05-05T23:26:09.037Z,12.63
2023-05-05T23:29:13.500Z,10.77
2023-05-05T23:32:16.618Z,10.70
2023-05-05T23:35:19.788Z,14.47
2023-05-05T23:38:22.803Z,10.27
2023-05-05T23:41:25.860Z,9.97
2023-05-05T23:44:31.102Z,10.57
2023-05-05T23:47:34.272Z,12.30
2023-05-05T23:50:37.418Z,11.07
2023-05-05T23:53:40.497Z,10.63
2023-05-05T23:56:43.676Z,12.07
2023-05-05T23:59:48.115Z,11.30
